createdAt,value
2018-07-03T00:01:19.463Z,2.00
2018-07-03T00:03:48.487Z,1.90
2018-07-03T00:06:17.702Z,2.80
2018-07-03T00:08:46.955Z,1.80
2018-07-03T00:11:15.858Z,1.80
2018-07-03T00:13:44.979Z,1.90
2018-07-03T00:16:19.027Z,1.90
2018-07-03T00:18:48.656Z,2.13
2018-07-03T00:21:18.620Z,1.83
2018-07-03T00:23:47.615Z,2.30
2018-07-03T00:26:16.742Z,2.57
2018-07-03T00:28:45.689Z,2.30
2018-07-03T00:31:14.739Z,2.30
2018-07-03T00:33:44.249Z,2.47
2018-07-03T00:36:13.734Z,2.33
2018-07-03T00:38:43.480Z,2.23
2018-07-03T00:41:12.474Z,2.20
2018-07-03T00:43:41.381Z,2.53
2018-07-03T00:46:10.356Z,2.37
2018-07-03T00:48:39.404Z,2.50
2018-07-03T00:51:09.112Z,2.40
2018-07-03T00:53:38.069Z,2.30
2018-07-03T00:56:07.111Z,2.07
2018-07-03T00:58:36.658Z,2.47
2018-07-03T01:01:06.581Z,2.20
2018-07-03T01:03:37.959Z,2.37
2018-07-03T01:06:06.926Z,2.57
2018-07-03T01:08:36.494Z,2.70
2018-07-03T01:11:05.932Z,2.37
2018-07-03T01:13:34.933Z,2.27
2018-07-03T01:16:04.069Z,2.30
2018-07-03T01:18:32.957Z,2.30
2018-07-03T01:21:02.672Z,2.53
2018-07-03T01:23:32.428Z,2.37
2018-07-03T01:26:02.214Z,2.00
2018-07-03T01:28:31.332Z,2.30
2018-07-03T01:31:00.282Z,2.70
2018-07-03T01:33:29.287Z,2.50
2018-07-03T01:35:58.333Z,2.30
2018-07-03T01:38:27.378Z,2.60
2018-07-03T01:40:56.296Z,2.73
2018-07-03T01:43:26.669Z,2.40
2018-07-03T01:45:55.861Z,2.53
2018-07-03T01:48:24.833Z,2.20
2018-07-03T01:50:53.998Z,2.33
2018-07-03T01:53:22.987Z,2.10
2018-07-03T01:55:51.901Z,2.13
2018-07-03T01:58:21.574Z,2.40
2018-07-03T02:00:50.804Z,2.50
2018-07-03T02:03:19.834Z,2.37
2018-07-03T02:05:50.368Z,2.10
2018-07-03T02:08:19.477Z,2.57
2018-07-03T02:10:48.769Z,2.50
2018-07-03T02:13:18.913Z,2.40
2018-07-03T02:15:47.911Z,2.33
2018-07-03T02:18:17.200Z,2.60
2018-07-03T02:20:46.905Z,2.40
2018-07-03T02:23:16.834Z,2.53
2018-07-03T02:25:45.802Z,2.33
2018-07-03T02:28:14.816Z,2.20
2018-07-03T02:30:43.788Z,2.13
2018-07-03T02:33:12.691Z,2.43
2018-07-03T02:35:41.690Z,2.50
2018-07-03T02:38:11.079Z,2.60
2018-07-03T02:40:41.350Z,2.40
2018-07-03T02:43:10.309Z,2.10
2018-07-03T02:45:39.291Z,2.27
2018-07-03T02:48:08.337Z,2.20
2018-07-03T02:50:38.318Z,2.53
2018-07-03T02:53:07.253Z,2.47
2018-07-03T02:55:36.198Z,2.40
2018-07-03T02:58:05.108Z,2.67
2018-07-03T03:00:34.642Z,2.50
2018-07-03T03:03:04.896Z,2.27
2018-07-03T03:05:34.024Z,2.80
2018-07-03T03:08:03.037Z,2.70
2018-07-03T03:10:32.513Z,2.37
2018-07-03T03:13:02.742Z,2.50
2018-07-03T03:15:31.687Z,2.57
2018-07-03T03:18:01.449Z,2.30
2018-07-03T03:20:31.353Z,2.50
2018-07-03T03:23:00.232Z,2.83
2018-07-03T03:25:31.380Z,2.73
2018-07-03T03:28:00.650Z,2.80
2018-07-03T03:30:29.681Z,2.50
2018-07-03T03:32:58.617Z,2.30
2018-07-03T03:35:28.889Z,2.77
2018-07-03T03:37:57.914Z,2.40
2018-07-03T03:40:27.293Z,2.60
2018-07-03T03:42:57.004Z,2.30
2018-07-03T03:45:26.873Z,2.53
2018-07-03T03:47:56.081Z,2.30
2018-07-03T03:50:26.353Z,2.70
2018-07-03T03:52:55.409Z,2.77
2018-07-03T03:55:24.438Z,2.53
2018-07-03T03:57:54.485Z,2.43
2018-07-03T04:00:23.532Z,2.67
2018-07-03T04:02:52.459Z,2.30
2018-07-03T04:05:23.163Z,2.23
2018-07-03T04:07:52.321Z,2.30
2018-07-03T04:10:21.301Z,2.00
2018-07-03T04:12:50.359Z,1.97
2018-07-03T04:15:20.920Z,2.20
2018-07-03T04:17:50.531Z,2.37
2018-07-03T04:20:19.398Z,3.47
2018-07-03T04:22:48.468Z,3.03
2018-07-03T04:25:17.270Z,3.70
2018-07-03T04:27:46.264Z,3.70
2018-07-03T04:30:15.460Z,3.47
2018-07-03T04:32:44.183Z,2.23
2018-07-03T04:35:13.198Z,2.47
2018-07-03T04:37:42.260Z,2.50
2018-07-03T04:40:11.279Z,2.17
2018-07-03T04:42:40.393Z,1.80
2018-07-03T04:45:09.556Z,1.73
2018-07-03T04:47:38.567Z,1.83
2018-07-03T04:50:07.583Z,1.50
2018-07-03T04:52:36.611Z,1.63
2018-07-03T04:55:05.823Z,1.30
2018-07-03T04:57:34.795Z,1.33
2018-07-03T05:00:03.877Z,1.27
2018-07-03T05:02:33.073Z,1.20
2018-07-03T05:05:02.085Z,1.43
2018-07-03T05:07:31.102Z,1.40
2018-07-03T05:09:59.928Z,1.33
2018-07-03T05:12:29.453Z,1.53
2018-07-03T05:14:58.572Z,1.13
2018-07-03T05:17:28.479Z,1.40
2018-07-03T05:19:57.609Z,1.43
2018-07-03T05:22:26.630Z,1.37
2018-07-03T05:24:55.732Z,0.90
2018-07-03T05:27:25.377Z,1.20
2018-07-03T05:29:54.488Z,1.20
2018-07-03T05:32:23.626Z,1.20
2018-07-03T05:34:53.234Z,1.20
2018-07-03T05:37:23.703Z,1.00
2018-07-03T05:39:52.727Z,1.22
2018-07-03T05:42:22.683Z,1.12
2018-07-03T05:44:51.743Z,1.05
2018-07-03T05:47:23.525Z,0.85
2018-07-03T05:49:52.541Z,0.85
2018-07-03T05:52:21.786Z,1.07
2018-07-03T05:54:50.818Z,1.07
2018-07-03T05:57:21.341Z,1.30
2018-07-03T05:59:50.478Z,0.90
2018-07-03T06:02:19.897Z,0.85
2018-07-03T06:04:49.762Z,1.07
2018-07-03T06:07:18.698Z,0.90
2018-07-03T06:09:49.495Z,1.00
2018-07-03T06:12:18.638Z,0.90
2018-07-03T06:14:47.690Z,1.05
2018-07-03T06:17:18.227Z,0.85
2018-07-03T06:19:47.216Z,1.20
2018-07-03T06:22:17.125Z,0.95
2018-07-03T06:24:46.237Z,0.80
2018-07-03T06:27:15.451Z,0.70
2018-07-03T06:29:45.695Z,1.00
2018-07-03T06:32:15.674Z,0.88
2018-07-03T06:34:45.385Z,0.90
2018-07-03T06:37:15.444Z,0.90
2018-07-03T06:39:44.521Z,1.00
2018-07-03T06:42:14.468Z,0.90
2018-07-03T06:44:45.427Z,0.82
2018-07-03T06:47:14.635Z,0.90
2018-07-03T06:49:43.840Z,0.95
2018-07-03T06:52:14.795Z,0.80
2018-07-03T06:54:43.866Z,1.07
2018-07-03T06:57:13.679Z,1.00
2018-07-03T06:59:42.705Z,0.80
2018-07-03T07:05:11.137Z,0.60
2018-07-03T07:07:40.527Z,1.00
2018-07-03T07:10:11.464Z,1.00
2018-07-03T07:12:40.561Z,0.85
2018-07-03T07:15:11.507Z,0.85
2018-07-03T07:17:45.872Z,3.65
2018-07-03T07:20:16.438Z,6.53
2018-07-03T07:22:45.566Z,1.98
2018-07-03T07:25:16.558Z,1.17
2018-07-03T07:27:46.247Z,1.02
2018-07-03T07:30:18.139Z,1.10
2018-07-03T07:32:49.721Z,1.00
2018-07-03T07:35:18.853Z,1.10
2018-07-03T07:37:49.083Z,0.93
2018-07-03T07:40:20.527Z,1.02
2018-07-03T07:42:50.344Z,0.85
2018-07-03T07:45:19.204Z,1.00
2018-07-03T07:47:49.038Z,0.90
2018-07-03T07:50:19.008Z,1.00
2018-07-03T07:52:48.980Z,1.10
2018-07-03T07:55:19.971Z,0.93
2018-07-03T07:57:50.084Z,1.17
2018-07-03T08:00:21.532Z,1.25
2018-07-03T08:02:51.043Z,0.80
2018-07-03T08:05:20.971Z,1.00
2018-07-03T08:07:50.095Z,1.00
2018-07-03T08:10:19.630Z,1.17
2018-07-03T08:12:48.751Z,1.05
2018-07-03T08:15:17.900Z,1.00
2018-07-03T08:17:47.631Z,1.20
2018-07-03T08:20:17.594Z,1.00
2018-07-03T08:22:49.398Z,0.93
2018-07-03T08:25:20.761Z,0.90
2018-07-03T08:27:49.897Z,0.80
2018-07-03T08:30:20.029Z,1.00
2018-07-03T08:32:51.000Z,1.65
2018-07-03T08:35:20.052Z,0.98
2018-07-03T08:37:49.491Z,1.07
2018-07-03T08:40:18.575Z,1.02
2018-07-03T08:42:50.421Z,0.90
2018-07-03T08:45:19.533Z,0.90
2018-07-03T08:47:50.071Z,1.00
2018-07-03T08:50:19.827Z,1.10
2018-07-03T08:52:48.830Z,0.80
2018-07-03T08:55:20.478Z,0.90
2018-07-03T08:57:49.817Z,0.80
2018-07-03T09:00:20.644Z,0.90
2018-07-03T09:02:51.269Z,0.80
2018-07-03T09:05:21.377Z,0.80
2018-07-03T09:07:51.737Z,0.80
2018-07-03T09:10:20.816Z,0.60
2018-07-03T09:12:50.838Z,0.60
2018-07-03T09:15:20.037Z,0.70
2018-07-03T09:17:51.936Z,0.68
2018-07-03T09:20:21.483Z,0.68
2018-07-03T09:22:50.627Z,0.80
2018-07-03T09:25:20.473Z,0.70
2018-07-03T09:27:50.984Z,0.60
2018-07-03T09:30:20.705Z,0.60
2018-07-03T09:32:52.127Z,0.60
2018-07-03T09:35:21.279Z,0.70
2018-07-03T09:37:51.280Z,0.60
2018-07-03T09:40:20.371Z,0.40
2018-07-03T09:42:54.935Z,0.70
2018-07-03T09:45:25.622Z,1.47
2018-07-03T09:47:54.793Z,0.75
2018-07-03T09:50:25.900Z,0.90
2018-07-03T09:52:54.943Z,0.70
2018-07-03T09:55:25.582Z,0.68
2018-07-03T09:57:55.675Z,0.57
2018-07-03T10:00:30.069Z,0.60
2018-07-03T10:03:00.424Z,0.70
2018-07-03T10:05:30.558Z,0.55
2018-07-03T10:07:59.683Z,0.60
2018-07-03T10:10:30.777Z,0.50
2018-07-03T10:13:01.630Z,0.65
2018-07-03T10:15:30.660Z,0.93
2018-07-03T10:18:00.924Z,0.62
2018-07-03T10:20:30.960Z,0.70
2018-07-03T10:23:01.389Z,1.10
2018-07-03T10:25:31.629Z,0.60
2018-07-03T10:28:02.063Z,0.60
2018-07-03T10:30:31.259Z,0.68
2018-07-03T10:33:00.311Z,0.60
2018-07-03T10:35:30.221Z,0.68
2018-07-03T10:38:00.213Z,0.60
2018-07-03T10:40:30.457Z,0.78
2018-07-03T10:43:00.232Z,0.60
2018-07-03T10:45:30.060Z,0.70
2018-07-03T10:48:02.439Z,0.80
2018-07-03T10:50:32.958Z,0.82
2018-07-03T10:53:03.027Z,0.60
2018-07-03T10:55:33.355Z,0.50
2018-07-03T10:58:04.146Z,0.60
2018-07-03T11:00:34.174Z,0.70
2018-07-03T11:03:03.831Z,0.68
2018-07-03T11:05:33.659Z,0.50
2018-07-03T11:08:02.703Z,0.60
2018-07-03T11:10:31.766Z,0.60
2018-07-03T11:13:01.339Z,0.82
2018-07-03T11:15:31.257Z,0.72
2018-07-03T11:18:00.295Z,0.60
2018-07-03T11:20:30.301Z,0.70
2018-07-03T11:22:59.601Z,0.90
2018-07-03T11:25:29.466Z,0.68
2018-07-03T11:27:59.874Z,0.88
2018-07-03T11:30:29.557Z,0.78
2018-07-03T11:32:59.557Z,0.70
2018-07-03T11:35:28.755Z,0.80
2018-07-03T11:37:59.672Z,0.62
2018-07-03T11:40:29.150Z,0.70
2018-07-03T11:42:58.216Z,0.50
2018-07-03T11:45:28.551Z,0.50
2018-07-03T11:47:57.731Z,0.60
2018-07-03T11:50:27.611Z,0.57
2018-07-03T11:52:58.246Z,0.60
2018-07-03T11:55:27.239Z,0.50
2018-07-03T11:57:58.821Z,0.70
2018-07-03T12:00:28.062Z,0.50
2018-07-03T12:02:57.233Z,0.70
2018-07-03T12:05:28.494Z,0.80
2018-07-03T12:07:57.489Z,0.88
2018-07-03T12:10:27.809Z,0.95
2018-07-03T12:12:57.739Z,0.95
2018-07-03T12:15:32.566Z,0.90
2018-07-03T12:18:01.694Z,0.82
2018-07-03T12:20:34.606Z,0.93
2018-07-03T12:23:03.590Z,0.93
2018-07-03T12:25:33.199Z,1.00
2018-07-03T12:28:03.006Z,0.60
2018-07-03T12:30:32.720Z,0.80
2018-07-03T12:33:02.749Z,0.85
2018-07-03T12:35:32.939Z,0.75
2018-07-03T12:38:02.625Z,0.82
2018-07-03T12:40:33.135Z,1.05
2018-07-03T12:43:03.862Z,0.80
2018-07-03T12:45:33.853Z,0.82
2018-07-03T12:48:05.159Z,0.82
2018-07-03T12:50:34.191Z,1.07
2018-07-03T12:53:03.081Z,0.72
2018-07-03T12:55:32.023Z,0.80
2018-07-03T12:58:02.009Z,0.60
2018-07-03T13:00:31.726Z,0.65
2018-07-03T13:03:00.900Z,0.80
2018-07-03T13:05:30.730Z,0.72
2018-07-03T13:07:59.997Z,0.98
2018-07-03T13:10:29.672Z,0.85
2018-07-03T13:13:00.726Z,0.88
2018-07-03T13:15:30.906Z,0.78
2018-07-03T13:18:04.947Z,0.70
2018-07-03T13:20:37.072Z,0.75
2018-07-03T13:23:10.231Z,1.00
2018-07-03T13:25:40.219Z,0.78
2018-07-03T13:28:10.221Z,0.80
2018-07-03T13:30:40.832Z,0.90
2018-07-03T13:33:09.983Z,0.78
2018-07-03T13:35:40.425Z,0.70
2018-07-03T13:38:09.556Z,0.90
2018-07-03T13:40:42.774Z,0.78
2018-07-03T13:43:11.974Z,0.70
2018-07-03T13:45:50.311Z,0.90
2018-07-03T13:48:19.955Z,1.60
2018-07-03T13:50:50.862Z,1.35
2018-07-03T13:53:19.982Z,0.78
2018-07-03T13:55:49.170Z,0.60
2018-07-03T13:58:18.130Z,0.55
2018-07-03T14:00:48.024Z,1.05
2018-07-03T14:03:17.686Z,1.15
2018-07-03T14:05:47.481Z,0.80
2018-07-03T14:08:18.618Z,0.90
2018-07-03T14:10:51.592Z,0.80
2018-07-03T14:13:22.132Z,1.07
2018-07-03T14:15:53.925Z,1.05
2018-07-03T14:18:26.872Z,0.85
2018-07-03T14:20:58.634Z,0.90
2018-07-03T14:23:29.513Z,1.00
2018-07-03T14:25:59.299Z,1.00
2018-07-03T14:28:29.797Z,0.75
2018-07-03T14:30:59.503Z,0.93
2018-07-03T14:33:29.191Z,0.90
2018-07-03T14:35:59.883Z,0.78
2018-07-03T14:38:29.428Z,0.98
2018-07-03T14:40:59.292Z,0.70
2018-07-03T14:43:30.303Z,2.08
2018-07-03T14:46:00.085Z,1.12
2018-07-03T14:48:31.500Z,0.82
2018-07-03T14:51:01.562Z,1.12
2018-07-03T14:53:31.894Z,0.80
2018-07-03T14:56:03.556Z,1.00
2018-07-03T14:58:32.598Z,1.20
2018-07-03T15:01:02.439Z,1.05
2018-07-03T15:03:32.391Z,1.10
2018-07-03T15:06:02.995Z,1.50
2018-07-03T15:08:36.763Z,0.93
2018-07-03T15:11:07.841Z,0.90
2018-07-03T15:13:38.274Z,0.85
2018-07-03T15:16:11.475Z,1.10
2018-07-03T15:18:45.502Z,0.80
2018-07-03T15:21:15.586Z,0.93
2018-07-03T15:23:47.765Z,0.90
2018-07-03T15:26:16.749Z,0.75
2018-07-03T15:28:46.682Z,0.60
2018-07-03T15:31:16.708Z,0.90
2018-07-03T15:33:45.176Z,1.02
2018-07-03T15:36:13.837Z,0.90
2018-07-03T15:38:42.558Z,0.85
2018-07-03T15:41:11.743Z,0.82
2018-07-03T15:43:42.144Z,0.80
2018-07-03T15:46:10.663Z,0.62
2018-07-03T15:48:39.231Z,0.88
2018-07-03T15:51:07.769Z,1.07
2018-07-03T15:53:36.217Z,0.90
2018-07-03T15:56:05.014Z,0.75
2018-07-03T15:58:33.522Z,0.80
2018-07-03T16:01:05.088Z,0.90
2018-07-03T16:06:10.877Z,0.80
2018-07-03T16:09:17.900Z,1.05
2018-07-03T16:11:46.639Z,1.07
2018-07-03T16:14:15.145Z,0.90
2018-07-03T16:16:43.809Z,0.90
2018-07-03T16:19:17.659Z,0.80
2018-07-03T16:21:48.742Z,0.78
2018-07-03T16:24:17.421Z,0.70
2018-07-03T16:26:46.231Z,1.25
2018-07-03T16:29:14.780Z,0.70
2018-07-03T16:31:43.736Z,0.90
2018-07-03T16:34:12.199Z,0.85
2018-07-03T16:36:42.485Z,0.75
2018-07-03T16:39:12.244Z,1.00
2018-07-03T16:41:40.728Z,1.00
2018-07-03T16:44:10.222Z,0.93
2018-07-03T16:46:39.044Z,1.25
2018-07-03T16:49:08.004Z,1.20
2018-07-03T16:51:37.770Z,0.80
2018-07-03T16:54:06.503Z,1.05
2018-07-03T16:56:35.174Z,1.25
2018-07-03T16:59:04.683Z,0.80
2018-07-03T17:01:33.166Z,0.98
2018-07-03T17:04:01.897Z,0.80
2018-07-03T17:06:30.410Z,0.90
2018-07-03T17:09:01.494Z,0.98
2018-07-03T17:11:29.979Z,2.92
2018-07-03T17:13:58.530Z,1.42
2018-07-03T17:16:27.035Z,1.87
2018-07-03T17:19:00.902Z,1.27
2018-07-03T17:21:29.369Z,0.93
2018-07-03T17:23:57.906Z,1.00
2018-07-03T17:26:26.759Z,1.00
2018-07-03T17:28:55.298Z,1.10
2018-07-03T17:31:23.742Z,1.00
2018-07-03T17:33:52.327Z,1.10
2018-07-03T17:36:24.201Z,0.90
2018-07-03T17:38:52.807Z,1.00
2018-07-03T17:41:33.490Z,0.95
2018-07-03T17:44:15.230Z,0.98
2018-07-03T17:46:43.761Z,1.32
2018-07-03T17:49:12.298Z,1.10
2018-07-03T17:51:40.850Z,1.50
2018-07-03T17:54:09.487Z,1.32
2018-07-03T17:56:38.067Z,1.12
2018-07-03T17:59:06.585Z,1.12
2018-07-03T18:01:35.090Z,1.10
2018-07-03T18:04:03.644Z,1.20
2018-07-03T18:06:33.534Z,1.12
2018-07-03T18:09:02.016Z,1.02
2018-07-03T18:11:30.547Z,1.27
2018-07-03T18:13:59.032Z,1.02
2018-07-03T18:16:27.759Z,0.95
2018-07-03T18:19:01.834Z,1.20
2018-07-03T18:21:30.346Z,1.20
2018-07-03T18:23:58.824Z,1.45
2018-07-03T18:26:27.416Z,1.15
2018-07-03T18:28:55.962Z,1.10
2018-07-03T18:31:24.475Z,1.10
2018-07-03T18:33:53.089Z,1.55
2018-07-03T18:36:21.646Z,1.30
2018-07-03T18:38:50.139Z,1.10
2018-07-03T18:41:18.883Z,1.00
2018-07-03T18:43:47.426Z,1.02
2018-07-03T18:46:15.948Z,0.90
2018-07-03T18:48:44.432Z,1.02
2018-07-03T18:51:12.980Z,1.37
2018-07-03T18:53:41.661Z,1.30
2018-07-03T18:56:10.163Z,1.25
2018-07-03T18:58:38.685Z,1.40
2018-07-03T19:01:07.322Z,1.07
2018-07-03T19:03:36.582Z,1.42
2018-07-03T19:06:05.474Z,2.12
2018-07-03T19:08:34.002Z,1.77
2018-07-03T19:11:03.039Z,2.02
2018-07-03T19:13:32.919Z,2.25
2018-07-03T19:16:01.525Z,2.45
2018-07-03T19:18:30.466Z,2.80
2018-07-03T19:20:59.366Z,1.98
2018-07-03T19:23:27.841Z,2.25
2018-07-03T19:25:57.434Z,2.50
2018-07-03T19:28:25.911Z,2.62
2018-07-03T19:30:54.599Z,2.27
2018-07-03T19:33:23.099Z,2.62
2018-07-03T19:35:51.724Z,2.30
2018-07-03T19:38:23.731Z,3.42
2018-07-03T19:40:52.218Z,2.75
2018-07-03T19:43:25.398Z,2.60
2018-07-03T19:45:55.877Z,2.77
2018-07-03T19:48:28.435Z,3.10
2018-07-03T19:50:57.761Z,3.05
2018-07-03T19:53:28.703Z,2.85
2018-07-03T19:58:31.739Z,2.70
2018-07-03T20:01:00.551Z,2.55
2018-07-03T20:03:29.478Z,3.25
2018-07-03T20:06:00.304Z,2.20
2018-07-03T20:08:29.498Z,2.37
2018-07-03T20:10:58.131Z,2.25
2018-07-03T20:13:26.623Z,2.47
2018-07-03T20:15:55.473Z,1.62
2018-07-03T20:18:27.759Z,2.55
2018-07-03T20:20:56.311Z,2.85
2018-07-03T20:23:24.818Z,2.15
2018-07-03T20:25:53.305Z,1.82
2018-07-03T20:28:21.910Z,2.95
2018-07-03T20:30:52.725Z,2.10
2018-07-03T20:33:21.634Z,2.33
2018-07-03T20:35:50.919Z,2.85
2018-07-03T20:38:19.898Z,2.75
2018-07-03T20:40:58.254Z,2.67
2018-07-03T20:43:27.982Z,2.50
2018-07-03T20:45:56.476Z,2.77
2018-07-03T20:48:25.649Z,3.30
2018-07-03T20:50:55.947Z,2.77
2018-07-03T20:53:24.579Z,2.83
2018-07-03T20:55:53.462Z,3.08
2018-07-03T20:58:22.510Z,2.90
2018-07-03T21:00:50.987Z,3.33
2018-07-03T21:03:19.558Z,3.10
2018-07-03T21:05:48.694Z,3.35
2018-07-03T21:08:17.216Z,3.55
2018-07-03T21:10:45.766Z,3.00
2018-07-03T21:13:14.349Z,3.40
2018-07-03T21:15:42.865Z,3.80
2018-07-03T21:18:11.529Z,3.50
2018-07-03T21:20:40.155Z,3.95
2018-07-03T21:23:08.720Z,3.40
2018-07-03T21:25:37.383Z,3.92
2018-07-03T21:28:06.050Z,4.12
2018-07-03T21:30:34.611Z,4.08
2018-07-03T21:33:04.230Z,3.75
2018-07-03T21:35:34.479Z,3.70
2018-07-03T21:38:05.270Z,4.20
2018-07-03T21:40:33.813Z,4.80
2018-07-03T21:43:07.019Z,4.22
2018-07-03T21:45:35.490Z,4.33
2018-07-03T21:48:04.027Z,4.00
2018-07-03T21:50:33.420Z,4.05
2018-07-03T21:53:01.908Z,3.75
2018-07-03T21:55:30.383Z,3.83
2018-07-03T21:58:04.771Z,3.83
2018-07-03T22:00:36.636Z,3.85
2018-07-03T22:03:10.362Z,3.52
2018-07-03T22:05:39.615Z,3.65
2018-07-03T22:08:08.127Z,3.47
2018-07-03T22:10:36.606Z,3.85
2018-07-03T22:13:05.100Z,3.90
2018-07-03T22:15:33.550Z,3.75
2018-07-03T22:18:02.089Z,4.55
2018-07-03T22:20:30.569Z,4.10
2018-07-03T22:22:59.051Z,5.10
2018-07-03T22:25:27.592Z,5.08
2018-07-03T22:27:56.094Z,5.15
2018-07-03T22:30:24.599Z,4.87
2018-07-03T22:32:53.119Z,4.40
2018-07-03T22:35:21.646Z,4.70
2018-07-03T22:37:50.173Z,5.25
2018-07-03T22:40:19.807Z,4.97
2018-07-03T22:42:48.319Z,4.55
2018-07-03T22:45:16.786Z,4.75
2018-07-03T22:47:46.107Z,4.67
2018-07-03T22:50:14.579Z,4.87
2018-07-03T22:52:43.203Z,4.50
2018-07-03T22:55:11.674Z,4.55
2018-07-03T22:57:40.170Z,4.70
2018-07-03T23:00:08.665Z,5.05
2018-07-03T23:02:37.395Z,4.70
2018-07-03T23:05:06.250Z,4.70
2018-07-03T23:07:35.042Z,5.28
2018-07-03T23:10:03.642Z,4.72
2018-07-03T23:12:32.130Z,4.70
2018-07-03T23:15:00.637Z,4.33
2018-07-03T23:17:31.016Z,4.55
2018-07-03T23:19:59.560Z,4.67
2018-07-03T23:22:28.046Z,4.58
2018-07-03T23:24:56.571Z,4.72
2018-07-03T23:27:25.385Z,4.60
2018-07-03T23:29:53.890Z,5.20
2018-07-03T23:32:24.564Z,5.08
2018-07-03T23:34:53.103Z,5.30
2018-07-03T23:37:21.598Z,5.40
2018-07-03T23:39:50.116Z,4.95
2018-07-03T23:42:18.786Z,4.85
2018-07-03T23:44:47.297Z,5.15
2018-07-03T23:47:26.848Z,5.58
2018-07-03T23:50:06.472Z,4.90
2018-07-03T23:52:46.134Z,5.75
2018-07-03T23:55:25.756Z,5.15
2018-07-03T23:58:05.214Z,5.05
